No particular awareness of the weather is required.    There are no Weather-warnings


Meteo18 Weather Cam more information Meteo18 Weather Cam


Thunder radar more information blitzortung!


Rain radar more information rain snow radar


Visit our other weather sites:

Template documentation
and downloads

And another site



Weather Underground History page Text

Daily Summary for November 26, 2017 Units:  English    Metric   Both
« Previous Day
Next Day »
Daily Weekly Monthly Yearly Custom
  High: Low: Average:
Temperature: TemperatureC °F -1.4 °F 2.1 °F
Dew Point: DewpointC °F -2.1 °F 0.8 °F
Humidity: Humidity % 77 % 91 %
Wind Speed: WindSpeedKMH mph 0.0 mph 4 mph
Wind Gust: WindSpeedGustKMH mph - -
Wind:- - WSW
Pressure: PressurehPa in 1026.0 in -
Precipitation: 0.3 in    
Historical Graphs
 
 
Tabular Data for November 26, 2017
Time Temperature Dew Point Pressure Wind Wind Speed Wind Gust Humidity Rainfall Rate (Hourly)
TemperatureC °F DewpointC °F PressurehPa in Calm     Humidity % HourlyPrecipMM in
00:02 1.1 °F -0.2 °F 1026.0 in Calm     91 % 0.0 in
00:07 1.2 °F 0.0 °F 1026.0 in Calm   1.6 mph 92 % 0.0 in
00:12 1.3 °F 0.1 °F 1026.3 in Calm   1.6 mph 92 % 0.0 in
00:17 1.4 °F 0.2 °F 1026.3 in Calm   1.6 mph 92 % 0.0 in
00:22 1.4 °F 0.1 °F 1026.3 in Calm   1.6 mph 91 % 0.0 in
00:32 1.4 °F 0.2 °F 1026.3 in West 1.6 mph 1.6 mph 92 % 0.0 in
00:37 1.4 °F 0.1 °F 1026.3 in SW 1.6 mph 1.6 mph 91 % 0.0 in
00:42 1.5 °F 0.3 °F 1026.3 in Calm   3.2 mph 92 % 0.0 in
00:52 1.3 °F 0.0 °F 1026.3 in Calm   3.2 mph 91 % 0.0 in
01:02 1.2 °F 0.0 °F 1026.3 in Calm   1.6 mph 92 % 0.0 in
01:12 1.4 °F 0.2 °F 1026.3 in Calm   3.2 mph 92 % 0.0 in
01:22 1.5 °F 0.2 °F 1026.3 in Calm   6.4 mph 91 % 0.0 in
01:32 1.3 °F 0.0 °F 1026.3 in WSW 1.6 mph 1.6 mph 91 % 0.0 in
01:42 1.3 °F 0.0 °F 1026.3 in SSW 1.6 mph 1.6 mph 91 % 0.0 in
01:52 1.2 °F -0.1 °F 1026.3 in Calm   4.8 mph 91 % 0.0 in
01:57 1.1 °F -0.2 °F 1026.3 in SW 1.6 mph 6.4 mph 91 % 0.0 in
02:02 1.0 °F -0.2 °F 1026.3 in SW 4.8 mph 6.4 mph 92 % 0.0 in
02:12 1.1 °F -0.1 °F 1026.6 in SW 3.2 mph 8.0 mph 92 % 0.0 in
02:17 0.9 °F -0.3 °F 1026.6 in SW 4.8 mph 8.0 mph 92 % 0.0 in
02:22 0.8 °F -0.4 °F 1026.6 in SSW 3.2 mph 8.0 mph 92 % 0.0 in
02:27 0.7 °F -0.5 °F 1026.6 in SW 6.4 mph 8.0 mph 92 % 0.0 in
02:42 1.1 °F 0.1 °F 1026.6 in West 3.2 mph 8.0 mph 93 % 0.0 in
02:52 1.2 °F 0.0 °F 1027.0 in SW 3.2 mph 8.0 mph 92 % 0.0 in
02:57 1.2 °F 0.0 °F 1027.0 in WSW 3.2 mph 6.4 mph 92 % 0.0 in
03:02 1.1 °F -0.1 °F 1027.0 in SW 3.2 mph 6.4 mph 92 % 0.0 in
03:07 1.1 °F -0.1 °F 1027.0 in WSW 4.8 mph 6.4 mph 92 % 0.0 in
03:12 1.1 °F -0.1 °F 1027.0 in West 4.8 mph 6.4 mph 92 % 0.0 in
03:17 1.1 °F -0.1 °F 1027.0 in WSW 1.6 mph 8.0 mph 92 % 0.0 in
03:22 0.8 °F -0.5 °F 1027.3 in Calm   8.0 mph 91 % 0.0 in
03:27 0.5 °F -0.8 °F 1027.0 in Calm   8.0 mph 91 % 0.0 in
03:37 0.3 °F -0.7 °F 1027.0 in SW 4.8 mph 4.8 mph 93 % 0.0 in
03:42 0.2 °F -0.8 °F 1027.0 in SSW 3.2 mph 3.2 mph 93 % 0.0 in
03:47 0.0 °F -1.1 °F 1027.0 in SW 4.8 mph 6.4 mph 92 % 0.0 in
03:52 -0.1 °F -1.1 °F 1027.0 in SW 1.6 mph 6.4 mph 93 % 0.0 in
03:57 -0.3 °F -1.3 °F 1027.0 in SSW 4.8 mph 9.7 mph 93 % 0.0 in
04:02 -0.4 °F -1.4 °F 1027.0 in SSW 1.6 mph 9.7 mph 93 % 0.0 in
04:12 -0.7 °F -1.5 °F 1027.0 in SSW 3.2 mph 8.0 mph 94 % 0.0 in
04:17 -0.8 °F -1.6 °F 1027.0 in SSW 1.6 mph 6.4 mph 94 % 0.0 in
04:22 -0.9 °F -1.7 °F 1027.0 in SW 1.6 mph 6.4 mph 94 % 0.0 in
04:27 -1.1 °F -1.9 °F 1027.3 in SW 8.0 mph 8.0 mph 94 % 0.0 in
04:32 -0.9 °F -1.6 °F 1027.0 in SW 4.8 mph 8.0 mph 95 % 0.0 in
04:42 -0.7 °F -1.4 °F 1027.3 in SW 4.8 mph 11.3 mph 95 % 0.0 in
04:47 -0.8 °F -1.5 °F 1027.3 in SW 1.6 mph 8.0 mph 95 % 0.0 in
04:52 -0.7 °F -1.4 °F 1027.7 in SW 1.6 mph 8.0 mph 95 % 0.0 in
05:02 -0.7 °F -1.4 °F 1027.7 in SW 1.6 mph 8.0 mph 95 % 0.0 in
05:12 -0.8 °F -1.5 °F 1027.7 in Calm   8.0 mph 95 % 0.0 in
05:17 -0.7 °F -1.3 °F 1027.7 in Calm   6.4 mph 96 % 0.0 in
05:22 -0.7 °F -1.3 °F 1027.7 in SW 1.6 mph 6.4 mph 96 % 0.0 in
05:32 -0.8 °F -1.5 °F 1027.7 in SW 6.4 mph 6.4 mph 95 % 0.0 in
05:37 -0.7 °F -1.3 °F 1027.7 in SW 8.0 mph 8.0 mph 96 % 0.0 in
05:42 -0.8 °F -1.5 °F 1027.7 in WSW 1.6 mph 8.0 mph 95 % 0.0 in
05:47 -1.0 °F -1.7 °F 1027.7 in SSW 4.8 mph 8.0 mph 95 % 0.0 in
05:52 -1.2 °F -1.9 °F 1027.7 in SSW 3.2 mph 8.0 mph 95 % 0.0 in
06:02 -1.4 °F -2.1 °F 1027.7 in SSW 4.8 mph 6.4 mph 95 % 0.0 in
06:12 -1.4 °F -2.0 °F 1027.7 in SW 4.8 mph 9.7 mph 96 % 0.0 in
06:17 -1.3 °F -1.9 °F 1027.7 in SW 6.4 mph 9.7 mph 96 % 0.0 in
06:22 -1.3 °F -1.9 °F 1027.7 in SW 8.0 mph 9.7 mph 96 % 0.0 in
06:27 -1.2 °F -1.8 °F 1027.7 in SW 4.8 mph 11.3 mph 96 % 0.0 in
06:32 -1.2 °F -1.8 °F 1027.7 in SSW 4.8 mph 11.3 mph 96 % 0.0 in
06:37 -1.2 °F -1.8 °F 1027.7 in WSW 8.0 mph 11.3 mph 96 % 0.0 in
06:42 -1.2 °F -1.8 °F 1027.7 in SW 6.4 mph 11.3 mph 96 % 0.0 in
06:47 -1.3 °F -1.9 °F 1027.7 in SW 4.8 mph 11.3 mph 96 % 0.0 in
06:52 -1.3 °F -1.9 °F 1027.7 in SW 4.8 mph 11.3 mph 96 % 0.0 in
07:02 -1.3 °F -1.9 °F 1027.7 in SSW 3.2 mph 9.7 mph 96 % 0.0 in
07:12 -1.2 °F -1.8 °F 1027.7 in SSW 4.8 mph 9.7 mph 96 % 0.0 in
07:17 -1.1 °F -1.7 °F 1027.7 in SSW 1.6 mph 8.0 mph 96 % 0.0 in
07:22 -1.1 °F -1.5 °F 1027.7 in SW 3.2 mph 8.0 mph 97 % 0.0 in
07:27 -1.0 °F -1.4 °F 1027.7 in SSW 3.2 mph 6.4 mph 97 % 0.0 in
07:32 -0.9 °F -1.3 °F 1027.7 in SSW 1.6 mph 6.4 mph 97 % 0.0 in
07:42 -0.8 °F -1.2 °F 1028.0 in Calm   4.8 mph 97 % 0.0 in
07:47 -0.6 °F -1.0 °F 1028.0 in SSW 1.6 mph 4.8 mph 97 % 0.0 in
07:57 -0.3 °F -0.7 °F 1028.0 in WSW 1.6 mph 9.7 mph 97 % 0.0 in
08:02 -0.2 °F -0.6 °F 1028.0 in WSW 6.4 mph 9.7 mph 97 % 0.0 in
08:12 -0.1 °F -0.5 °F 1028.3 in SW 11.3 mph 11.3 mph 97 % 0.0 in
08:17 -0.1 °F -0.5 °F 1028.3 in WSW 4.8 mph 12.9 mph 97 % 0.0 in
08:22 -0.1 °F -0.5 °F 1028.3 in SW 1.6 mph 12.9 mph 97 % 0.0 in
08:32 -0.1 °F -0.5 °F 1028.3 in WSW 6.4 mph 12.9 mph 97 % 0.0 in
08:42 -0.1 °F -0.5 °F 1028.3 in SW 1.6 mph 11.3 mph 97 % 0.0 in
08:47 -0.1 °F -0.5 °F 1028.7 in WSW 6.4 mph 9.7 mph 97 % 0.0 in
08:52 -0.1 °F -0.5 °F 1028.7 in West 9.7 mph 9.7 mph 97 % 0.0 in
09:02 -0.1 °F -0.5 °F 1028.7 in WSW 4.8 mph 12.9 mph 97 % 0.0 in
09:07 0.0 °F -0.4 °F 1028.7 in West 6.4 mph 12.9 mph 97 % 0.0 in
09:12 0.0 °F -0.4 °F 1028.7 in SW 8.0 mph 12.9 mph 97 % 0.0 in
09:17 0.1 °F -0.3 °F 1028.7 in WSW 3.2 mph 11.3 mph 97 % 0.0 in
09:22 0.1 °F -0.3 °F 1028.7 in WSW 8.0 mph 11.3 mph 97 % 0.0 in
09:32 0.1 °F -0.3 °F 1029.0 in WSW 3.2 mph 11.3 mph 97 % 0.0 in
09:42 0.1 °F -0.3 °F 1029.0 in Calm   11.3 mph 97 % 0.0 in
09:47 0.1 °F -0.3 °F 1029.3 in Calm   6.4 mph 97 % 0.0 in
09:52 0.1 °F -0.3 °F 1029.3 in SSE 1.6 mph 6.4 mph 97 % 0.0 in
09:57 0.2 °F -0.2 °F 1029.3 in SSW 3.2 mph 9.7 mph 97 % 0.0 in
10:02 0.2 °F -0.2 °F 1029.3 in WSW 4.8 mph 9.7 mph 97 % 0.0 in
10:07 0.3 °F -0.1 °F 1029.3 in SW 3.2 mph 6.4 mph 97 % 0.3 in
10:17 0.4 °F 0.0 °F 1029.7 in SSW 4.8 mph 6.4 mph 97 % 0.3 in
10:22 0.4 °F 0.0 °F 1029.7 in Calm   6.4 mph 97 % 0.3 in
10:32 0.5 °F 0.1 °F 1029.7 in Calm   9.7 mph 97 % 0.3 in
10:42 0.7 °F 0.3 °F 1029.7 in Calm   8.0 mph 97 % 0.3 in
10:47 0.8 °F 0.4 °F 1029.7 in SW 1.6 mph 6.4 mph 97 % 0.3 in
10:57 1.1 °F 0.7 °F 1029.7 in WSW 3.2 mph 3.2 mph 97 % 0.0 in
11:02 1.1 °F 0.7 °F 1029.7 in WSW 4.8 mph 4.8 mph 97 % 0.0 in
11:12 1.2 °F 0.8 °F 1029.7 in WSW 6.4 mph 9.7 mph 97 % 0.0 in
11:17 1.3 °F 0.9 °F 1029.7 in WSW 6.4 mph 9.7 mph 97 % 0.0 in
11:22 1.6 °F 1.2 °F 1029.7 in West 1.6 mph 9.7 mph 97 % 0.0 in
11:32 2.3 °F 1.9 °F 1029.7 in WNW 1.6 mph 11.3 mph 97 % 0.0 in
11:37 2.6 °F 2.2 °F 1029.7 in WSW 4.8 mph 9.7 mph 97 % 0.0 in
11:47 2.9 °F 2.5 °F 1029.7 in SW 1.6 mph 11.3 mph 97 % 0.0 in
11:52 2.9 °F 2.5 °F 1029.7 in West 4.8 mph 11.3 mph 97 % 0.0 in
12:02 2.7 °F 2.1 °F 1029.7 in West 3.2 mph 11.3 mph 96 % 0.0 in
12:07 2.6 °F 1.9 °F 1029.7 in SW 6.4 mph 12.9 mph 95 % 0.0 in
12:12 2.7 °F 2.0 °F 1029.7 in SSW 3.2 mph 12.9 mph 95 % 0.0 in
12:17 2.9 °F 2.3 °F 1029.7 in SSW 1.6 mph 12.9 mph 96 % 0.0 in
12:22 3.1 °F 2.4 °F 1029.7 in WSW 4.8 mph 12.9 mph 95 % 0.0 in
12:37 3.1 °F 1.9 °F 1029.7 in WSW 4.8 mph 11.3 mph 92 % 0.0 in
12:42 2.9 °F 1.9 °F 1029.7 in WSW 6.4 mph 11.3 mph 93 % 0.0 in
12:52 2.9 °F 2.0 °F 1029.7 in SSE 6.4 mph 14.5 mph 94 % 0.0 in
12:57 2.8 °F 1.8 °F 1029.7 in SSW 3.2 mph 11.3 mph 93 % 0.0 in
13:02 2.9 °F 2.0 °F 1029.7 in South 3.2 mph 11.3 mph 94 % 0.0 in
13:12 3.5 °F 2.8 °F 1029.7 in WSW 9.7 mph 9.7 mph 95 % 0.0 in
13:22 4.0 °F 2.7 °F 1029.7 in West 11.3 mph 12.9 mph 91 % 0.0 in
13:32 4.3 °F 2.8 °F 1029.7 in WNW 9.7 mph 14.5 mph 90 % 0.0 in
13:42 4.7 °F 2.9 °F 1029.3 in NW 1.6 mph 14.5 mph 88 % 0.0 in
13:47 4.8 °F 2.7 °F 1029.3 in NW 4.8 mph 12.9 mph 86 % 0.0 in
13:52 4.8 °F 2.5 °F 1029.3 in NW 3.2 mph 12.9 mph 85 % 0.0 in
13:57 5.1 °F 2.8 °F 1029.3 in WNW 3.2 mph 16.1 mph 85 % 0.0 in
14:02 5.1 °F 2.6 °F 1029.3 in West 6.4 mph 16.1 mph 84 % 0.0 in
14:12 5.2 °F 2.5 °F 1029.3 in WSW 3.2 mph 12.9 mph 83 % 0.0 in
14:17 5.3 °F 2.8 °F 1029.3 in West 3.2 mph 14.5 mph 84 % 0.0 in
14:27 5.5 °F 2.8 °F 1029.3 in West 8.0 mph 14.5 mph 83 % 0.0 in
14:32 5.6 °F 3.1 °F 1029.3 in West 6.4 mph 14.5 mph 84 % 0.0 in
14:42 5.7 °F 3.2 °F 1029.3 in SW 8.0 mph 16.1 mph 84 % 0.0 in
14:47 5.8 °F 3.1 °F 1029.3 in West 6.4 mph 16.1 mph 83 % 0.0 in
14:57 5.8 °F 3.1 °F 1029.3 in West 9.7 mph 12.9 mph 83 % 0.0 in
15:02 6.0 °F 3.0 °F 1029.3 in West 4.8 mph 12.9 mph 81 % 0.0 in
15:12 6.3 °F 3.3 °F 1029.3 in SW 4.8 mph 12.9 mph 81 % 0.0 in
15:17 6.2 °F 3.4 °F 1029.3 in SW 6.4 mph 14.5 mph 82 % 0.0 in
15:22 6.2 °F 2.6 °F 1029.3 in WNW 17.7 mph 17.7 mph 78 % 0.0 in
15:27 6.3 °F 2.6 °F 1029.3 in West 12.9 mph 20.9 mph 77 % 0.0 in
15:32 6.3 °F 2.6 °F 1029.3 in West 12.9 mph 20.9 mph 77 % 0.0 in
15:37 6.2 °F 2.6 °F 1029.3 in WNW 3.2 mph 20.9 mph 78 % 0.0 in
15:42 6.1 °F 2.7 °F 1029.7 in WNW 4.8 mph 20.9 mph 79 % 0.0 in
15:52 5.9 °F 2.4 °F 1029.7 in West 8.0 mph 17.7 mph 78 % 0.0 in
15:57 5.8 °F 2.6 °F 1029.7 in West 8.0 mph 16.1 mph 80 % 0.0 in
16:02 5.7 °F 2.9 °F 1029.7 in West 8.0 mph 16.1 mph 82 % 0.0 in
16:07 5.6 °F 2.9 °F 1029.7 in West 8.0 mph 12.9 mph 83 % 0.0 in
16:12 5.5 °F 2.8 °F 1029.7 in West 6.4 mph 12.9 mph 83 % 0.0 in
16:17 5.4 °F 2.7 °F 1029.7 in West 3.2 mph 12.9 mph 83 % 0.0 in
16:22 5.4 °F 2.7 °F 1029.7 in WSW 4.8 mph 12.9 mph 83 % 0.0 in
16:27 5.3 °F 2.8 °F 1029.7 in West 6.4 mph 12.9 mph 84 % 0.0 in
16:32 5.3 °F 2.8 °F 1029.7 in West 6.4 mph 12.9 mph 84 % 0.0 in
16:37 5.2 °F 2.7 °F 1029.7 in WSW 1.6 mph 9.7 mph 84 % 0.0 in
16:42 5.2 °F 2.7 °F 1029.7 in WSW 4.8 mph 9.7 mph 84 % 0.0 in
16:47 5.1 °F 2.8 °F 1029.7 in WSW 4.8 mph 11.3 mph 85 % 0.0 in
16:52 5.1 °F 2.8 °F 1030.0 in West 3.2 mph 11.3 mph 85 % 0.0 in
16:57 4.9 °F 2.6 °F 1030.0 in WSW 4.8 mph 9.7 mph 85 % 0.0 in
17:02 4.9 °F 2.8 °F 1030.0 in WSW 3.2 mph 9.7 mph 86 % 0.0 in
17:12 4.7 °F 2.7 °F 1030.0 in West 6.4 mph 9.7 mph 87 % 0.0 in
17:17 4.6 °F 2.6 °F 1030.4 in WNW 3.2 mph 6.4 mph 87 % 0.0 in
17:22 4.4 °F 2.4 °F 1030.4 in West 1.6 mph 6.4 mph 87 % 0.0 in
17:27 4.3 °F 2.5 °F 1030.4 in WSW 3.2 mph 6.4 mph 88 % 0.0 in
17:32 4.3 °F 2.3 °F 1030.4 in WNW 4.8 mph 6.4 mph 87 % 0.0 in
17:42 4.2 °F 2.4 °F 1030.4 in West 3.2 mph 6.4 mph 88 % 0.0 in
17:52 4.1 °F 2.3 °F 1030.4 in West 4.8 mph 6.4 mph 88 % 0.0 in
17:57 4.1 °F 2.3 °F 1030.4 in West 4.8 mph 8.0 mph 88 % 0.0 in
18:12 4.1 °F 2.1 °F 1030.4 in West 4.8 mph 8.0 mph 87 % 0.0 in
18:17 4.0 °F 2.0 °F 1030.7 in West 4.8 mph 9.7 mph 87 % 0.0 in
18:22 3.9 °F 1.9 °F 1030.7 in West 4.8 mph 9.7 mph 87 % 0.0 in
18:32 3.9 °F 1.9 °F 1030.4 in West 6.4 mph 9.7 mph 87 % 0.0 in
18:37 3.9 °F 1.9 °F 1030.7 in West 6.4 mph 9.7 mph 87 % 0.0 in
18:42 3.9 °F 1.9 °F 1030.7 in WSW 6.4 mph 11.3 mph 87 % 0.0 in
18:47 4.0 °F 2.0 °F 1030.7 in West 6.4 mph 11.3 mph 87 % 0.0 in
18:52 4.0 °F 2.0 °F 1030.7 in West 4.8 mph 11.3 mph 87 % 0.0 in
18:57 4.1 °F 2.1 °F 1030.7 in WSW 4.8 mph 11.3 mph 87 % 0.0 in
19:07 4.1 °F 2.1 °F 1030.7 in West 9.7 mph 11.3 mph 87 % 0.0 in
19:12 4.1 °F 2.1 °F 1030.7 in West 6.4 mph 11.3 mph 87 % 0.0 in
19:17 4.0 °F 2.2 °F 1030.7 in WSW 6.4 mph 11.3 mph 88 % 0.0 in
19:22 3.9 °F 2.1 °F 1030.7 in WSW 8.0 mph 11.3 mph 88 % 0.0 in
19:27 3.9 °F 2.1 °F 1030.7 in West 4.8 mph 11.3 mph 88 % 0.0 in
19:32 3.8 °F 2.0 °F 1030.7 in West 4.8 mph 11.3 mph 88 % 0.0 in
19:37 3.7 °F 1.9 °F 1030.7 in West 4.8 mph 11.3 mph 88 % 0.0 in
19:42 3.6 °F 1.8 °F 1030.7 in WNW 3.2 mph 11.3 mph 88 % 0.0 in
19:47 3.6 °F 1.8 °F 1030.7 in West 4.8 mph 11.3 mph 88 % 0.0 in
19:57 3.6 °F 1.8 °F 1030.7 in WNW 6.4 mph 11.3 mph 88 % 0.0 in
20:07 3.7 °F 2.1 °F 1030.4 in WSW 3.2 mph 11.3 mph 89 % 0.0 in
20:12 3.7 °F 2.1 °F 1030.7 in West 4.8 mph 11.3 mph 89 % 0.0 in
20:17 3.6 °F 2.0 °F 1030.7 in West 4.8 mph 12.9 mph 89 % 0.0 in
20:22 3.6 °F 2.0 °F 1030.7 in WSW 8.0 mph 12.9 mph 89 % 0.0 in
20:27 3.6 °F 2.0 °F 1030.7 in West 4.8 mph 9.7 mph 89 % 0.0 in
20:32 3.5 °F 1.9 °F 1030.7 in West 4.8 mph 9.7 mph 89 % 0.0 in
20:42 3.7 °F 2.1 °F 1030.7 in West 4.8 mph 11.3 mph 89 % 0.0 in
20:52 3.6 °F 2.0 °F 1030.7 in WSW 3.2 mph 11.3 mph 89 % 0.0 in
20:57 3.5 °F 1.9 °F 1030.7 in West 6.4 mph 12.9 mph 89 % 0.0 in
21:02 3.3 °F 1.7 °F 1030.7 in WNW 4.8 mph 12.9 mph 89 % 0.0 in
21:07 3.2 °F 1.6 °F 1030.7 in WSW 4.8 mph 12.9 mph 89 % 0.0 in
21:17 3.1 °F 1.6 °F 1030.7 in West 6.4 mph 8.0 mph 90 % 0.0 in
21:22 3.1 °F 1.6 °F 1030.7 in WSW 3.2 mph 8.0 mph 90 % 0.0 in
21:32 3.1 °F 1.6 °F 1030.7 in WNW 4.8 mph 8.0 mph 90 % 0.0 in
21:42 2.9 °F 1.4 °F 1030.7 in WNW 6.4 mph 9.7 mph 90 % 0.0 in
21:47 2.8 °F 1.5 °F 1030.7 in West 4.8 mph 9.7 mph 91 % 0.0 in
21:52 2.9 °F 1.6 °F 1030.7 in West 4.8 mph 9.7 mph 91 % 0.0 in
21:57 2.9 °F 1.6 °F 1030.7 in West 6.4 mph 8.0 mph 91 % 0.0 in
22:07 2.8 °F 1.5 °F 1030.7 in Calm   6.4 mph 91 % 0.0 in
22:12 2.7 °F 1.4 °F 1030.7 in Calm   6.4 mph 91 % 0.0 in
22:17 2.7 °F 1.4 °F 1030.7 in Calm   4.8 mph 91 % 0.0 in
22:27 2.7 °F 1.4 °F 1030.7 in Calm   3.2 mph 91 % 0.0 in
22:32 2.7 °F 1.4 °F 1030.7 in Calm   3.2 mph 91 % 0.0 in
22:37 2.5 °F 1.2 °F 1030.7 in Calm   1.6 mph 91 % 0.0 in
22:42 2.3 °F 1.0 °F 1030.7 in Calm   1.6 mph 91 % 0.0 in
22:47 2.4 °F 1.2 °F 1030.7 in Calm   1.6 mph 92 % 0.0 in
22:52 2.4 °F 1.2 °F 1030.7 in Calm   1.6 mph 92 % 0.0 in
22:57 2.2 °F 1.0 °F 1030.7 in Calm   1.6 mph 92 % 0.0 in
23:02 1.9 °F 0.7 °F 1030.7 in Calm   1.6 mph 92 % 0.0 in
23:12 1.6 °F 0.6 °F 1030.7 in Calm   3.2 mph 93 % 0.0 in
23:22 1.0 °F -0.2 °F 1030.7 in Calm   4.8 mph 92 % 0.0 in
23:32 1.3 °F 0.6 °F 1030.7 in Calm   4.8 mph 95 % 0.0 in
23:37 1.4 °F 0.7 °F 1030.7 in SW 1.6 mph 4.8 mph 95 % 0.0 in
23:42 1.4 °F 0.7 °F 1031.0 in WSW 1.6 mph 4.8 mph 95 % 0.0 in
23:47 1.3 °F 0.4 °F 1031.0 in SW 1.6 mph 3.2 mph 94 % 0.0 in
23:52 1.2 °F 0.3 °F 1031.0 in West 3.2 mph 3.2 mph 94 % 0.0 in
23:57 1.3 °F 0.6 °F 1031.0 in West 1.6 mph 4.8 mph 95 % 0.0 in
Meteo18
Compliments of Weather Underground - 4 mb

Script developed by  Jim McMurry - jmcmurry@mwt.net Adapted for the template by  Wim van der Kuil - Leuven-Template.eu

You find our weather info also at:

European Weather Network

Weather Underground

Equipment we use:

Weather-station
Davis Vue

Weather-program
Meteobridge

Weather-server
Raspberry PI 2 B+

Provider
1 and 1

Davis Vue

Meteobridge

Raspberry PI 2 B+

1 and 1